createdAt,value
2022-08-05T00:00:16.745Z,96312.50
2022-08-05T00:02:50.816Z,96318.94
2022-08-05T00:06:02.888Z,96315.47
2022-08-05T00:08:34.269Z,96317.84
2022-08-05T00:10:54.892Z,96314.13
2022-08-05T00:13:38.542Z,96314.63
2022-08-05T00:16:10.917Z,96301.75
2022-08-05T00:18:40.865Z,96299.63
2022-08-05T00:21:10.009Z,96300.22
2022-08-05T00:23:46.579Z,96306.94
2022-08-05T00:26:22.317Z,96306.72
2022-08-05T00:28:50.607Z,96298.78
2022-08-05T00:31:53.737Z,96304.69
2022-08-05T00:34:54.292Z,96299.16
2022-08-05T00:37:11.495Z,96307.44
2022-08-05T00:39:57.149Z,96298.13
2022-08-05T00:42:32.832Z,96292.56
2022-08-05T00:45:01.214Z,96292.84
2022-08-05T00:47:53.479Z,96292.66
2022-08-05T00:50:18.069Z,96288.88
2022-08-05T00:52:46.756Z,96291.53
2022-08-05T00:55:14.944Z,96290.75
2022-08-05T00:57:58.582Z,96292.94
2022-08-05T01:00:28.138Z,96292.69
2022-08-05T01:02:58.155Z,96300.81
2022-08-05T01:05:28.443Z,96296.84
2022-08-05T01:08:40.698Z,96292.34
2022-08-05T01:10:52.297Z,96295.59
2022-08-05T01:13:27.259Z,96296.97
2022-08-05T01:16:26.111Z,96291.41
2022-08-05T01:19:00.782Z,96298.94
2022-08-05T01:21:52.285Z,96289.38
2022-08-05T01:24:36.743Z,96294.25
2022-08-05T01:27:19.259Z,96292.44
2022-08-05T01:29:52.108Z,96293.53
2022-08-05T01:32:24.965Z,96295.41
2022-08-05T01:34:59.436Z,96295.97
2022-08-05T01:37:46.204Z,96298.69
2022-08-05T01:40:17.820Z,96294.72
2022-08-05T01:42:46.935Z,96303.81
2022-08-05T01:45:17.192Z,96300.63
2022-08-05T01:47:47.802Z,96312.91
2022-08-05T01:50:19.759Z,96311.63
2022-08-05T01:53:00.859Z,96314.84
2022-08-05T01:55:31.986Z,96318.03
2022-08-05T01:58:12.870Z,96322.28
2022-08-05T02:00:58.891Z,96323.38
2022-08-05T02:03:34.154Z,96321.56
2022-08-05T02:06:33.669Z,96328.84
2022-08-05T02:08:58.352Z,96326.78
2022-08-05T02:11:33.644Z,96338.59
2022-08-05T02:14:06.259Z,96345.56
2022-08-05T02:16:42.758Z,96364.50
2022-08-05T02:19:19.819Z,96364.94
2022-08-05T02:21:55.126Z,96363.03
2022-08-05T02:24:29.548Z,96355.53
2022-08-05T02:27:01.024Z,96356.53
2022-08-05T02:29:59.434Z,96360.81
2022-08-05T02:32:31.444Z,96354.97
2022-08-05T02:35:09.631Z,96355.53
2022-08-05T02:37:47.925Z,96369.00
2022-08-05T02:40:24.097Z,96354.16
2022-08-05T02:42:54.483Z,96367.00
2022-08-05T02:45:24.252Z,96358.25
2022-08-05T02:48:07.702Z,96373.78
2022-08-05T02:50:43.881Z,96379.41
2022-08-05T02:53:19.181Z,96389.75
2022-08-05T02:55:54.486Z,96398.25
2022-08-05T02:58:28.929Z,96402.75
2022-08-05T03:00:59.933Z,96390.16
2022-08-05T03:03:34.056Z,96394.94
2022-08-05T03:06:55.672Z,96405.59
2022-08-05T03:09:06.396Z,96403.47
2022-08-05T03:11:55.324Z,96397.56
2022-08-05T03:14:23.027Z,96395.22
2022-08-05T03:16:53.378Z,96388.88
2022-08-05T03:19:34.300Z,96391.31
2022-08-05T03:22:05.017Z,96391.38
2022-08-05T03:24:44.727Z,96391.66
2022-08-05T03:27:15.932Z,96387.69
2022-08-05T03:29:45.283Z,96382.66
2022-08-05T03:32:31.653Z,96379.25
2022-08-05T03:35:00.884Z,96395.28
2022-08-05T03:37:28.523Z,96393.44
2022-08-05T03:39:59.265Z,96378.00
2022-08-05T03:42:29.323Z,96372.69
2022-08-05T03:45:01.886Z,96384.72
2022-08-05T03:47:49.329Z,96382.09
2022-08-05T03:50:18.448Z,96390.94
2022-08-05T03:55:06.836Z,96379.22
2022-08-05T03:55:52.782Z,96391.50
2022-08-05T03:58:33.725Z,96384.56
2022-08-05T04:01:04.022Z,96391.97
2022-08-05T04:03:35.990Z,96394.03
2022-08-05T04:06:08.778Z,96402.03
2022-08-05T04:08:37.164Z,96416.91
2022-08-05T04:11:07.271Z,96418.75
2022-08-05T04:13:51.113Z,96427.50
2022-08-05T04:16:25.133Z,96428.28
2022-08-05T04:18:54.368Z,96437.38
2022-08-05T04:22:08.358Z,96424.31
2022-08-05T04:24:19.587Z,96422.72
2022-08-05T04:26:50.522Z,96431.00
2022-08-05T04:29:18.092Z,96442.47
2022-08-05T04:31:46.972Z,96445.13
2022-08-05T04:34:18.874Z,96451.78
2022-08-05T04:37:03.188Z,96461.13
2022-08-05T04:39:31.103Z,96458.16
2022-08-05T04:45:22.986Z,96465.94
2022-08-05T04:48:39.124Z,96456.06
2022-08-05T04:51:46.837Z,96450.47
2022-08-05T04:54:57.283Z,96449.63
2022-08-05T04:57:28.647Z,96448.91
2022-08-05T04:59:57.360Z,96445.19
2022-08-05T05:02:41.306Z,96455.91
2022-08-05T05:05:26.056Z,96455.91
2022-08-05T05:08:01.196Z,96457.00
2022-08-05T05:10:33.440Z,96462.84
2022-08-05T05:13:01.912Z,96462.03
2022-08-05T05:15:57.512Z,96462.25
2022-08-05T05:18:28.204Z,96466.25
2022-08-05T05:20:56.301Z,96475.31
2022-08-05T05:23:26.086Z,96477.16
2022-08-05T05:25:54.977Z,96501.63
2022-08-05T05:28:24.901Z,96511.22
2022-08-05T05:30:52.469Z,96533.91
2022-08-05T05:33:23.234Z,96538.44
2022-08-05T05:35:51.122Z,96534.19
2022-08-05T05:38:22.457Z,96533.66
2022-08-05T05:40:56.913Z,96548.59
2022-08-05T05:43:57.246Z,96559.25
2022-08-05T05:46:16.114Z,96559.53
2022-08-05T05:48:47.862Z,96574.19
2022-08-05T05:51:20.885Z,96579.53
2022-08-05T05:53:58.167Z,96600.88
2022-08-05T05:56:31.564Z,96609.16
2022-08-05T05:59:03.580Z,96618.25
2022-08-05T06:01:37.406Z,96631.84
2022-08-05T06:04:07.306Z,96633.47
2022-08-05T06:06:35.185Z,96640.94
2022-08-05T06:09:04.031Z,96653.19
2022-08-05T06:11:33.333Z,96662.03
2022-08-05T06:14:02.210Z,96653.19
2022-08-05T06:16:36.867Z,96657.75
2022-08-05T06:19:07.599Z,96655.34
2022-08-05T06:21:38.328Z,96668.69
2022-08-05T06:24:12.427Z,96665.50
2022-08-05T06:26:51.492Z,96679.38
2022-08-05T06:29:24.947Z,96674.06
2022-08-05T06:32:20.929Z,96678.31
2022-08-05T06:34:53.297Z,96674.84
2022-08-05T06:37:56.894Z,96682.59
2022-08-05T06:40:10.602Z,96685.78
2022-08-05T06:42:40.627Z,96677.78
2022-08-05T06:45:09.586Z,96678.31
2022-08-05T06:48:36.778Z,96670.81
2022-08-05T06:50:35.647Z,96650.00
2022-08-05T06:53:03.702Z,96659.59
2022-08-05T06:55:42.009Z,96655.03
2022-08-05T06:58:29.098Z,96666.78
2022-08-05T07:00:59.388Z,96667.03
2022-08-05T07:03:32.448Z,96671.25
2022-08-05T07:06:01.952Z,96673.63
2022-08-05T07:08:33.925Z,96677.59
2022-08-05T07:11:01.965Z,96672.75
2022-08-05T07:13:57.897Z,96675.41
2022-08-05T07:17:56.300Z,96673.22
2022-08-05T07:20:16.887Z,96680.66
2022-08-05T07:22:27.738Z,96685.38
2022-08-05T07:24:55.647Z,96687.53
2022-08-05T07:27:24.229Z,96685.66
2022-08-05T07:30:25.484Z,96689.13
2022-08-05T07:32:46.025Z,96691.16
2022-08-05T07:36:03.318Z,96689.50
2022-08-05T07:38:12.378Z,96684.63
2022-08-05T07:40:55.636Z,96666.38
2022-08-05T07:43:29.127Z,96659.34
2022-08-05T07:45:58.755Z,96658.75
2022-08-05T07:49:02.099Z,96668.84
2022-08-05T07:51:23.474Z,96673.59
2022-08-05T07:54:03.454Z,96675.09
2022-08-05T07:57:00.103Z,96673.63
2022-08-05T07:59:21.884Z,96670.03
2022-08-05T08:01:57.672Z,96681.19
2022-08-05T08:04:37.360Z,96678.97
2022-08-05T08:07:07.372Z,96687.97
2022-08-05T08:09:35.214Z,96679.31
2022-08-05T08:12:13.619Z,96687.78
2022-08-05T08:14:46.897Z,96689.88
2022-08-05T08:17:16.418Z,96686.66
2022-08-05T08:20:21.858Z,96692.72
2022-08-05T08:22:33.933Z,96704.69
2022-08-05T08:25:16.513Z,96699.75
2022-08-05T08:27:47.760Z,96703.69
2022-08-05T08:30:32.287Z,96706.00
2022-08-05T08:33:13.783Z,96712.06
2022-08-05T08:35:53.802Z,96699.59
2022-08-05T08:38:35.486Z,96701.81
2022-08-05T08:41:06.635Z,96710.00
2022-08-05T08:45:18.560Z,96710.63
2022-08-05T08:46:23.847Z,96708.84
2022-08-05T08:49:07.865Z,96706.09
2022-08-05T08:52:05.933Z,96706.25
2022-08-05T08:54:32.430Z,96710.66
2022-08-05T08:57:00.338Z,96714.03
2022-08-05T08:59:33.857Z,96704.00
2022-08-05T09:02:02.511Z,96717.91
2022-08-05T09:04:31.478Z,96705.59
2022-08-05T09:06:59.327Z,96713.16
2022-08-05T09:09:34.793Z,96702.41
2022-08-05T09:12:15.304Z,96701.81
2022-08-05T09:14:58.978Z,96708.97
2022-08-05T09:17:40.950Z,96700.53
2022-08-05T09:20:12.462Z,96704.44
2022-08-05T09:23:19.390Z,96712.59
2022-08-05T09:26:01.136Z,96708.50
2022-08-05T09:28:32.102Z,96702.25
2022-08-05T09:31:43.729Z,96693.03
2022-08-05T09:33:54.642Z,96699.28
2022-08-05T09:36:27.908Z,96699.66
2022-08-05T09:39:04.007Z,96698.47
2022-08-05T09:41:57.273Z,96691.41
2022-08-05T09:44:37.485Z,96693.38
2022-08-05T09:47:10.224Z,96681.44
2022-08-05T09:50:01.449Z,96691.28
2022-08-05T09:52:32.556Z,96672.34
2022-08-05T09:55:55.224Z,96674.94
2022-08-05T09:57:54.702Z,96670.25
2022-08-05T10:00:26.684Z,96668.53
2022-08-05T10:02:58.352Z,96667.81
2022-08-05T10:05:28.979Z,96660.13
2022-08-05T10:08:35.289Z,96657.78
2022-08-05T10:10:54.722Z,96663.84
2022-08-05T10:13:44.072Z,96659.44
2022-08-05T10:16:34.107Z,96655.34
2022-08-05T10:19:09.310Z,96644.28
2022-08-05T10:21:40.485Z,96646.34
2022-08-05T10:24:13.531Z,96640.28
2022-08-05T10:26:51.194Z,96640.91
2022-08-05T10:29:23.420Z,96630.16
2022-08-05T10:32:52.141Z,96632.84
2022-08-05T10:35:01.120Z,96628.59
2022-08-05T10:37:40.031Z,96632.34
2022-08-05T10:40:28.272Z,96632.34
2022-08-05T10:43:02.387Z,96627.59
2022-08-05T10:45:41.682Z,96639.44
2022-08-05T10:48:38.394Z,96643.75
2022-08-05T10:51:28.409Z,96639.94
2022-08-05T10:54:01.540Z,96647.09
2022-08-05T13:22:50.966Z,96570.41
2022-08-05T13:25:51.806Z,96574.72
2022-08-05T13:28:20.301Z,96565.50
2022-08-05T13:30:48.966Z,96559.78
2022-08-05T13:34:23.514Z,96569.00
2022-08-05T13:37:01.485Z,96553.59
2022-08-05T13:40:16.235Z,96550.91
2022-08-05T13:42:30.043Z,96540.09
2022-08-05T13:45:07.331Z,96545.50
2022-08-05T13:48:08.793Z,96549.75
2022-08-05T15:22:10.605Z,96533.88
2022-08-05T15:24:39.768Z,96531.47
2022-08-05T15:27:09.075Z,96536.41
2022-08-05T15:29:41.903Z,96522.44
2022-08-05T15:32:10.201Z,96520.41
2022-08-05T15:34:37.685Z,96518.38
2022-08-05T15:37:14.149Z,96517.41
2022-08-05T15:41:03.337Z,96512.66
2022-08-05T15:42:54.401Z,96511.69
2022-08-05T15:45:23.146Z,96514.56
2022-08-05T15:48:06.999Z,96522.84
2022-08-05T15:50:34.636Z,96519.19
2022-08-05T15:53:05.600Z,96524.13
2022-08-05T15:56:02.744Z,96502.06
2022-08-05T15:58:23.311Z,96499.22
2022-08-05T16:01:15.871Z,96521.44
2022-08-05T16:03:41.179Z,96533.19
2022-08-05T16:06:11.519Z,96533.34
2022-08-05T16:08:40.153Z,96526.53
2022-08-05T16:11:11.000Z,96525.13
2022-08-05T16:13:38.602Z,96515.56
2022-08-05T16:16:07.002Z,96518.44
2022-08-05T16:18:52.296Z,96519.72
2022-08-05T16:21:20.553Z,96517.16
2022-08-05T16:24:40.186Z,96522.41
2022-08-05T16:26:58.766Z,96526.53
2022-08-05T16:29:27.563Z,96538.75
2022-08-05T16:31:59.004Z,96543.66
2022-08-05T16:34:27.918Z,96543.16
2022-08-05T16:36:55.975Z,96532.69
2022-08-05T16:40:04.302Z,96529.53
2022-08-05T16:42:17.587Z,96538.72
2022-08-05T16:44:54.382Z,96539.34
2022-08-05T16:47:35.919Z,96556.16
2022-08-05T16:50:05.318Z,96560.56
2022-08-05T16:52:33.677Z,96559.91
2022-08-05T16:55:01.327Z,96561.13
2022-08-05T16:57:53.170Z,96568.09
2022-08-05T17:00:26.063Z,96576.94
2022-08-05T17:03:02.771Z,96578.81
2022-08-05T17:05:31.750Z,96583.06
2022-08-05T17:07:59.680Z,96577.34
2022-08-05T17:10:30.474Z,96584.78
2022-08-05T17:12:59.610Z,96583.13
2022-08-05T17:15:47.732Z,96580.06
2022-08-05T17:18:16.036Z,96594.44
2022-08-05T17:20:46.550Z,96590.00
2022-08-05T17:24:03.622Z,96604.38
2022-08-05T17:26:02.279Z,96614.47
2022-08-05T17:28:31.304Z,96622.97
2022-08-05T17:30:58.805Z,96621.50
2022-08-05T17:33:26.382Z,96628.56
2022-08-05T17:36:31.673Z,96625.38
2022-08-05T17:38:54.419Z,96637.56
2022-08-05T17:42:19.056Z,96645.44
2022-08-05T17:44:12.109Z,96651.13
2022-08-05T17:46:44.053Z,96652.84
2022-08-05T17:49:14.175Z,96662.31
2022-08-05T17:51:42.585Z,96671.56
2022-08-05T17:54:13.743Z,96665.81
2022-08-05T17:56:41.933Z,96672.38
2022-08-05T17:59:13.545Z,96677.84
2022-08-05T18:01:49.376Z,96667.22
2022-08-05T18:04:21.302Z,96675.41
2022-08-05T18:06:54.655Z,96678.16
2022-08-05T18:09:59.058Z,96679.41
2022-08-05T18:12:15.633Z,96682.16
2022-08-05T18:14:52.947Z,96682.56
2022-08-05T18:17:58.958Z,96689.09
2022-08-05T18:20:14.165Z,96703.44
2022-08-05T18:22:53.815Z,96696.56
2022-08-05T18:25:22.356Z,96701.25
2022-08-05T18:27:52.854Z,96710.78
2022-08-05T18:30:21.773Z,96710.88
2022-08-05T18:33:00.923Z,96715.53
2022-08-05T18:36:00.094Z,96719.09
2022-08-05T18:38:19.435Z,96725.66
2022-08-05T18:41:56.953Z,96726.06
2022-08-05T18:43:42.589Z,96736.31
2022-08-05T18:46:11.692Z,96734.81
2022-08-05T18:48:41.840Z,96737.06
2022-08-05T18:52:03.389Z,96736.66
2022-08-05T18:54:15.137Z,96737.03
2022-08-05T18:56:51.057Z,96746.22
2022-08-05T18:59:42.874Z,96762.41
2022-08-05T19:02:26.834Z,96762.78
2022-08-05T19:05:01.766Z,96768.50
2022-08-05T19:07:42.359Z,96780.38
2022-08-05T19:10:14.149Z,96783.06
2022-08-05T19:12:41.700Z,96779.69
2022-08-05T19:15:59.109Z,96781.34
2022-08-05T19:18:09.540Z,96785.69
2022-08-05T19:20:41.483Z,96788.13
2022-08-05T19:23:22.439Z,96797.03
2022-08-05T19:26:02.009Z,96811.00
2022-08-05T19:28:30.566Z,96820.97
2022-08-05T19:30:58.104Z,96819.94
2022-08-05T19:33:35.330Z,96818.94
2022-08-05T19:36:06.436Z,96818.69
2022-08-05T19:38:35.643Z,96815.78
2022-08-05T19:41:06.710Z,96812.91
2022-08-05T19:44:05.995Z,96813.44
2022-08-05T19:46:30.228Z,96804.38
2022-08-05T19:49:01.082Z,96801.50
2022-08-05T19:52:05.155Z,96807.38
2022-08-05T19:54:27.166Z,96817.03
2022-08-05T19:56:59.735Z,96825.94
2022-08-05T19:59:56.170Z,96828.09
2022-08-05T20:02:17.447Z,96823.31
2022-08-05T20:04:48.405Z,96830.56
2022-08-05T20:07:46.368Z,96828.47
2022-08-05T20:10:13.427Z,96838.66
2022-08-05T20:12:48.401Z,96841.09
2022-08-05T20:15:48.058Z,96848.13
2022-08-05T20:18:10.634Z,96839.84
2022-08-05T20:20:56.063Z,96850.59
2022-08-05T20:23:40.148Z,96852.50
2022-08-05T20:26:15.313Z,96858.97
2022-08-05T20:28:45.865Z,96856.06
2022-08-05T20:31:16.544Z,96855.31
2022-08-05T20:33:45.021Z,96858.50
2022-08-05T20:36:16.347Z,96852.94
2022-08-05T20:38:54.021Z,96835.84
2022-08-05T20:41:27.470Z,96837.75
2022-08-05T20:44:18.547Z,96845.28
2022-08-05T20:46:56.717Z,96849.63
2022-08-05T20:49:26.054Z,96861.69
2022-08-05T20:51:57.665Z,96880.13
2022-08-05T20:54:43.673Z,96888.97
2022-08-05T20:57:14.630Z,96900.78
2022-08-05T21:00:20.670Z,96912.56
2022-08-05T21:02:48.859Z,96918.69
2022-08-05T21:05:19.601Z,96913.59
2022-08-05T21:07:52.178Z,96914.44
2022-08-05T21:10:20.357Z,96921.38
2022-08-05T21:12:57.861Z,96933.41
2022-08-05T21:15:36.649Z,96923.53
2022-08-05T21:18:04.812Z,96930.25
2022-08-05T22:33:58.003Z,97130.78
2022-08-05T22:36:25.311Z,97133.69
2022-08-05T22:39:09.418Z,97144.81
2022-08-05T22:44:35.259Z,97136.84
2022-08-05T22:47:11.213Z,97136.47
2022-08-05T22:50:18.446Z,97137.44
2022-08-05T22:52:36.196Z,97141.28
2022-08-05T22:55:22.330Z,97146.44
2022-08-05T22:57:51.043Z,97144.06
2022-08-05T23:00:21.192Z,97134.59
2022-08-05T23:02:50.310Z,97140.59
2022-08-05T23:05:18.741Z,97140.28
2022-08-05T23:07:49.679Z,97139.41
2022-08-05T23:10:20.125Z,97149.72
2022-08-05T23:12:51.591Z,97146.69
2022-08-05T23:15:22.584Z,97137.81
2022-08-05T23:18:00.996Z,97138.56
2022-08-05T23:20:29.540Z,97145.22
2022-08-05T23:22:59.003Z,97141.03
2022-08-05T23:25:52.523Z,97140.75
2022-08-05T23:28:15.790Z,97148.16
2022-08-05T23:30:53.374Z,97149.75
2022-08-05T23:33:25.822Z,97146.53
2022-08-05T23:36:09.939Z,97154.72
2022-08-05T23:38:40.358Z,97146.75
2022-08-05T23:41:07.871Z,97145.97
2022-08-05T23:44:03.654Z,97154.44
2022-08-05T23:46:23.994Z,97157.66
2022-08-05T23:49:00.490Z,97153.13
2022-08-05T23:51:52.707Z,97147.03
2022-08-05T23:54:25.127Z,97157.41
2022-08-05T23:56:54.927Z,97154.50
2022-08-05T23:59:22.683Z,97166.75
